Fjordprinsessen — LJVE — position and weather

sailwx.info

Track history (hours):
 
Tides and Currents Weather Stations Pressure Air Temp Water Temp Dewpoint Dewpoint Depression Visibility Wind Speed Wind Dir Waves Ship Positions

Fjordprinsessen

Last reported at 2015-Jul-05 03:18 UTC. Time now 2015-Jul-05 06:09 UTC.
Position N 66°35' E 012°13'.

Length 30 m; draft 2 m.

Type: High speed craft. MMSI: 259604000.

Date/timePositionNaut miles runAvg speedWind from/ knotsBaromVisibWave heightAir tempDewpointWater temp
2015-Jul-05 03:18N 66°35' E 012°13'0 0.0
2015-Jul-05 02:24N 66°35' E 012°13'5 0.8
2015-Jul-04 19:33N 66°30' E 012°07'1514.8
2015-Jul-04 18:33N 66°22' E 012°37'1312.9
2015-Jul-04 17:33N 66°33' E 012°19'1110.5
2015-Jul-04 16:33N 66°22' E 012°22'1514.6
2015-Jul-04 15:30N 66°20' E 013°00'19 2.3
2015-Jul-04 07:05N 66°03' E 012°39'1520.4
2015-Jul-04 06:22N 66°16' E 012°56'911.7
2015-Jul-04 05:33N 66°23' E 012°38'1514.6
2015-Jul-04 04:33N 66°30' E 012°06'6 5.7
2015-Jul-04 03:30N 66°35' E 012°13'0 0.0
2015-Jul-04 02:30N 66°35' E 012°13'0 0.0
2015-Jul-04 01:06N 66°35' E 012°13'0 0.0
2015-Jul-04 00:24N 66°35' E 012°13'0 0.0
2015-Jul-03 23:24N 66°35' E 012°13'0 0.0
2015-Jul-03 20:29N 66°35' E 012°13'6 6.2
2015-Jul-03 19:33N 66°30' E 012°06'1515.0
2015-Jul-03 18:33N 66°22' E 012°38'1615.9
2015-Jul-03 17:33N 66°35' E 012°12'1313.6
2015-Jul-03 16:34N 66°22' E 012°23'1513.0
2015-Jul-03 15:25N 66°20' E 013°00'0 0.1
2015-Jul-03 13:09N 66°21' E 012°60'712.6
2015-Jul-03 12:33N 66°24' E 012°44'1616.2
2015-Jul-03 11:33N 66°30' E 012°06'1514.8
2015-Jul-03 10:33N 66°22' E 012°38'9 2.3
2015-Jul-03 06:24N 66°16' E 012°56'1011.2
2015-Jul-03 05:33N 66°23' E 012°38'1514.8
2015-Jul-03 04:34N 66°30' E 012°06'6 5.0
2015-Jul-03 03:24N 66°35' E 012°13'0 0.0
2015-Jul-03 01:18N 66°35' E 012°13'0 0.0
2015-Jul-02 21:24N 66°35' E 012°13'0 0.0
2015-Jul-02 20:30N 66°35' E 012°13'9 9.8
2015-Jul-02 19:34N 66°26' E 012°17'1211.9
2015-Jul-02 18:33N 66°23' E 012°46'1717.5
2015-Jul-02 17:33N 66°35' E 012°13'1313.3
2015-Jul-02 16:34N 66°23' E 012°25'1412.9
2015-Jul-02 15:27N 66°20' E 012°60'4 0.5
2015-Jul-02 06:23N 66°16' E 012°56'911.6
2015-Jul-02 05:33N 66°23' E 012°38'1514.5
2015-Jul-02 04:32N 66°30' E 012°06'6 5.9
2015-Jul-02 03:33N 66°35' E 012°13'0 0.0
2015-Jul-02 02:31N 66°35' E 012°13'0 0.0
2015-Jul-02 01:32N 66°35' E 012°13'0 0.0
2015-Jul-02 00:33N 66°35' E 012°13'0 0.0
2015-Jul-01 23:29N 66°35' E 012°13'0 0.0
2015-Jul-01 22:31N 66°35' E 012°13'0 0.0
2015-Jul-01 21:28N 66°35' E 012°13'0 0.0
2015-Jul-01 20:33N 66°35' E 012°13'5 5.1
2015-Jul-01 19:33N 66°31' E 012°07'1514.9
2015-Jul-01 18:34N 66°22' E 012°37'1413.8
2015-Jul-01 17:32N 66°33' E 012°17'1111.8
2015-Jul-01 16:33N 66°22' E 012°22'1514.0
2015-Jul-01 15:28N 66°20' E 013°00'3 1.2
2015-Jul-01 13:17N 66°18' E 012°57'1014.3
2015-Jul-01 12:34N 66°26' E 012°40'1414.0
2015-Jul-01 11:33N 66°30' E 012°06'1514.9
2015-Jul-01 10:34N 66°22' E 012°38'9 2.0
2015-Jul-01 06:18N 66°19' E 012°58'911.7
2015-Jul-01 05:34N 66°22' E 012°38'1414.1
2015-Jul-01 04:33N 66°30' E 012°09'5 4.6
2015-Jul-01 03:27N 66°35' E 012°13'0 0.0
2015-Jul-01 02:33N 66°35' E 012°13'0 0.0
2015-Jul-01 01:33N 66°35' E 012°13'0 0.0
2015-Jul-01 00:31N 66°35' E 012°13'0 0.0
2015-Jun-30 23:33N 66°35' E 012°13'0 0.0
2015-Jun-30 22:33N 66°35' E 012°13'0 0.0
2015-Jun-30 21:33N 66°35' E 012°13'0 0.0
2015-Jun-30 20:30N 66°35' E 012°13'4 4.7
2015-Jun-30 19:33N 66°31' E 012°07'1515.1
2015-Jun-30 18:33N 66°22' E 012°37'1212.4
2015-Jun-30 17:33N 66°32' E 012°20'1010.2
2015-Jun-30 16:34N 66°22' E 012°22'1512.5
2015-Jun-30 15:22N 66°20' E 012°59'2 0.3
2015-Jun-30 06:22N 66°18' E 012°57'910.9
2015-Jun-30 05:34N 66°22' E 012°38'1514.6
2015-Jun-30 04:33N 66°30' E 012°07'5 3.7
2015-Jun-30 03:08N 66°35' E 012°13'0 0.0
2015-Jun-30 02:14N 66°35' E 012°13'0 0.0
2015-Jun-30 00:26N 66°35' E 012°13'1 0.2
2015-Jun-29 19:33N 66°34' E 012°12'1615.7
2015-Jun-29 18:33N 66°22' E 012°38'1615.5
2015-Jun-29 17:32N 66°35' E 012°13'1313.3
2015-Jun-29 16:34N 66°24' E 012°28'1312.7
2015-Jun-29 15:33N 66°21' E 012°59'4 0.4
2015-Jun-29 06:25N 66°17' E 012°56'910.6
2015-Jun-29 05:34N 66°23' E 012°38'1414.4
2015-Jun-29 04:33N 66°30' E 012°08'5 4.9
2015-Jun-29 03:30N 66°35' E 012°13'0 0.0
2015-Jun-29 01:24N 66°35' E 012°13'6 1.2
2015-Jun-28 20:33N 66°30' E 012°10'1616.0
2015-Jun-28 19:32N 66°23' E 012°48'7 5.5
2015-Jun-28 18:11N 66°17' E 012°56'711.6
2015-Jun-28 17:34N 66°24' E 012°49'1615.8
2015-Jun-28 16:33N 66°29' E 012°12'6 6.1
2015-Jun-28 15:34N 66°30' E 012°26'1714.9
2015-Jun-28 14:26N 66°20' E 013°00'1214.2
2015-Jun-28 13:34N 66°24' E 012°31'1312.5
2015-Jun-28 12:33N 66°34' E 012°12'1 0.2
2015-Jun-28 08:05N 66°35' E 012°13'0 0.0
2015-Jun-28 07:23N 66°35' E 012°13'0 0.0
2015-Jun-28 03:05N 66°35' E 012°13'0 0.0
2015-Jun-27 19:33N 66°35' E 012°13'1616.3
2015-Jun-27 18:33N 66°22' E 012°37'1615.4
2015-Jun-27 17:30N 66°35' E 012°13'1314.4
2015-Jun-27 16:34N 66°22' E 012°24'1514.3
2015-Jun-27 15:32N 66°20' E 013°00'2 0.3
2015-Jun-27 06:19N 66°18' E 012°57'811.0
2015-Jun-27 05:33N 66°23' E 012°39'1515.0
2015-Jun-27 04:33N 66°30' E 012°07'2 0.2
2015-Jun-26 19:34N 66°32' E 012°08'1414.2
2015-Jun-26 18:34N 66°25' E 012°37'1413.7
2015-Jun-26 17:34N 66°34' E 012°12'1312.9
2015-Jun-26 16:34N 66°24' E 012°33'1111.2
2015-Jun-26 15:32N 66°20' E 012°60'4 1.8
2015-Jun-26 13:14N 66°17' E 012°56'1015.1
2015-Jun-26 12:33N 66°25' E 012°42'1515.1
2015-Jun-26 11:33N 66°30' E 012°06'1514.8
2015-Jun-26 10:33N 66°22' E 012°38'1512.1
2015-Jun-26 09:17N 66°07' E 012°48'14 4.8
2015-Jun-26 06:25N 66°20' E 012°59'8 8.9
2015-Jun-26 05:33N 66°23' E 012°41'1515.3
2015-Jun-26 04:33N 66°30' E 012°07'6 2.7
2015-Jun-26 02:31N 66°35' E 012°13'0 0.0
2015-Jun-25 23:19N 66°35' E 012°13'0 0.0
2015-Jun-25 22:07N 66°35' E 012°13'4 1.5
2015-Jun-25 19:33N 66°32' E 012°07'1414.2
2015-Jun-25 18:33N 66°25' E 012°37'1410.2
2015-Jun-25 17:13N 66°31' E 012°07'1116.3
2015-Jun-25 16:33N 66°22' E 012°22'1514.6
2015-Jun-25 15:31N 66°20' E 013°00'  
Track history (hours):
 
Tides and Currents Weather Stations Pressure Air Temp Water Temp Dewpoint Dewpoint Depression Visibility Wind Speed Wind Dir Waves Ship Positions

Fjordprinsessen

Last reported at 2015-Jul-05 03:18 UTC. Time now 2015-Jul-05 06:09 UTC.
Position N 66°35' E 012°13'.

Length 30 m; draft 2 m.

Type: High speed craft. MMSI: 259604000.

Date/timePositionNaut miles runAvg speedWind from/ knotsBaromVisibWave heightAir tempDewpointWater temp
2015-Jul-05 03:18N 66°35' E 012°13'0 0.0
2015-Jul-05 02:24N 66°35' E 012°13'5 0.8
2015-Jul-04 19:33N 66°30' E 012°07'1514.8
2015-Jul-04 18:33N 66°22' E 012°37'1312.9
2015-Jul-04 17:33N 66°33' E 012°19'1110.5
2015-Jul-04 16:33N 66°22' E 012°22'1514.6
2015-Jul-04 15:30N 66°20' E 013°00'19 2.3
2015-Jul-04 07:05N 66°03' E 012°39'1520.4
2015-Jul-04 06:22N 66°16' E 012°56'911.7
2015-Jul-04 05:33N 66°23' E 012°38'1514.6
2015-Jul-04 04:33N 66°30' E 012°06'6 5.7
2015-Jul-04 03:30N 66°35' E 012°13'0 0.0
2015-Jul-04 02:30N 66°35' E 012°13'0 0.0
2015-Jul-04 01:06N 66°35' E 012°13'0 0.0
2015-Jul-04 00:24N 66°35' E 012°13'0 0.0
2015-Jul-03 23:24N 66°35' E 012°13'0 0.0
2015-Jul-03 20:29N 66°35' E 012°13'6 6.2
2015-Jul-03 19:33N 66°30' E 012°06'1515.0
2015-Jul-03 18:33N 66°22' E 012°38'1615.9
2015-Jul-03 17:33N 66°35' E 012°12'1313.6
2015-Jul-03 16:34N 66°22' E 012°23'1513.0
2015-Jul-03 15:25N 66°20' E 013°00'0 0.1
2015-Jul-03 13:09N 66°21' E 012°60'712.6
2015-Jul-03 12:33N 66°24' E 012°44'1616.2
2015-Jul-03 11:33N 66°30' E 012°06'1514.8
2015-Jul-03 10:33N 66°22' E 012°38'9 2.3
2015-Jul-03 06:24N 66°16' E 012°56'1011.2
2015-Jul-03 05:33N 66°23' E 012°38'1514.8
2015-Jul-03 04:34N 66°30' E 012°06'6 5.0
2015-Jul-03 03:24N 66°35' E 012°13'0 0.0
2015-Jul-03 01:18N 66°35' E 012°13'0 0.0
2015-Jul-02 21:24N 66°35' E 012°13'0 0.0
2015-Jul-02 20:30N 66°35' E 012°13'9 9.8
2015-Jul-02 19:34N 66°26' E 012°17'1211.9
2015-Jul-02 18:33N 66°23' E 012°46'1717.5
2015-Jul-02 17:33N 66°35' E 012°13'1313.3
2015-Jul-02 16:34N 66°23' E 012°25'1412.9
2015-Jul-02 15:27N 66°20' E 012°60'4 0.5
2015-Jul-02 06:23N 66°16' E 012°56'911.6
2015-Jul-02 05:33N 66°23' E 012°38'1514.5
2015-Jul-02 04:32N 66°30' E 012°06'6 5.9
2015-Jul-02 03:33N 66°35' E 012°13'0 0.0
2015-Jul-02 02:31N 66°35' E 012°13'0 0.0
2015-Jul-02 01:32N 66°35' E 012°13'0 0.0
2015-Jul-02 00:33N 66°35' E 012°13'0 0.0
2015-Jul-01 23:29N 66°35' E 012°13'0 0.0
2015-Jul-01 22:31N 66°35' E 012°13'0 0.0
2015-Jul-01 21:28N 66°35' E 012°13'0 0.0
2015-Jul-01 20:33N 66°35' E 012°13'5 5.1
2015-Jul-01 19:33N 66°31' E 012°07'1514.9
2015-Jul-01 18:34N 66°22' E 012°37'1413.8
2015-Jul-01 17:32N 66°33' E 012°17'1111.8
2015-Jul-01 16:33N 66°22' E 012°22'1514.0
2015-Jul-01 15:28N 66°20' E 013°00'3 1.2
2015-Jul-01 13:17N 66°18' E 012°57'1014.3
2015-Jul-01 12:34N 66°26' E 012°40'1414.0
2015-Jul-01 11:33N 66°30' E 012°06'1514.9
2015-Jul-01 10:34N 66°22' E 012°38'9 2.0
2015-Jul-01 06:18N 66°19' E 012°58'911.7
2015-Jul-01 05:34N 66°22' E 012°38'1414.1
2015-Jul-01 04:33N 66°30' E 012°09'5 4.6
2015-Jul-01 03:27N 66°35' E 012°13'0 0.0
2015-Jul-01 02:33N 66°35' E 012°13'0 0.0
2015-Jul-01 01:33N 66°35' E 012°13'0 0.0
2015-Jul-01 00:31N 66°35' E 012°13'0 0.0
2015-Jun-30 23:33N 66°35' E 012°13'0 0.0
2015-Jun-30 22:33N 66°35' E 012°13'0 0.0
2015-Jun-30 21:33N 66°35' E 012°13'0 0.0
2015-Jun-30 20:30N 66°35' E 012°13'4 4.7
2015-Jun-30 19:33N 66°31' E 012°07'1515.1
2015-Jun-30 18:33N 66°22' E 012°37'1212.4
2015-Jun-30 17:33N 66°32' E 012°20'1010.2
2015-Jun-30 16:34N 66°22' E 012°22'1512.5
2015-Jun-30 15:22N 66°20' E 012°59'2 0.3
2015-Jun-30 06:22N 66°18' E 012°57'910.9
2015-Jun-30 05:34N 66°22' E 012°38'1514.6
2015-Jun-30 04:33N 66°30' E 012°07'5 3.7
2015-Jun-30 03:08N 66°35' E 012°13'0 0.0
2015-Jun-30 02:14N 66°35' E 012°13'0 0.0
2015-Jun-30 00:26N 66°35' E 012°13'1 0.2
2015-Jun-29 19:33N 66°34' E 012°12'1615.7
2015-Jun-29 18:33N 66°22' E 012°38'1615.5
2015-Jun-29 17:32N 66°35' E 012°13'1313.3
2015-Jun-29 16:34N 66°24' E 012°28'1312.7
2015-Jun-29 15:33N 66°21' E 012°59'4 0.4
2015-Jun-29 06:25N 66°17' E 012°56'910.6
2015-Jun-29 05:34N 66°23' E 012°38'1414.4
2015-Jun-29 04:33N 66°30' E 012°08'5 4.9
2015-Jun-29 03:30N 66°35' E 012°13'0 0.0
2015-Jun-29 01:24N 66°35' E 012°13'6 1.2
2015-Jun-28 20:33N 66°30' E 012°10'1616.0
2015-Jun-28 19:32N 66°23' E 012°48'7 5.5
2015-Jun-28 18:11N 66°17' E 012°56'711.6
2015-Jun-28 17:34N 66°24' E 012°49'1615.8
2015-Jun-28 16:33N 66°29' E 012°12'6 6.1
2015-Jun-28 15:34N 66°30' E 012°26'1714.9
2015-Jun-28 14:26N 66°20' E 013°00'1214.2
2015-Jun-28 13:34N 66°24' E 012°31'1312.5
2015-Jun-28 12:33N 66°34' E 012°12'1 0.2
2015-Jun-28 08:05N 66°35' E 012°13'0 0.0
2015-Jun-28 07:23N 66°35' E 012°13'0 0.0
2015-Jun-28 03:05N 66°35' E 012°13'0 0.0
2015-Jun-27 19:33N 66°35' E 012°13'1616.3
2015-Jun-27 18:33N 66°22' E 012°37'1615.4
2015-Jun-27 17:30N 66°35' E 012°13'1314.4
2015-Jun-27 16:34N 66°22' E 012°24'1514.3
2015-Jun-27 15:32N 66°20' E 013°00'2 0.3
2015-Jun-27 06:19N 66°18' E 012°57'811.0
2015-Jun-27 05:33N 66°23' E 012°39'1515.0
2015-Jun-27 04:33N 66°30' E 012°07'2 0.2
2015-Jun-26 19:34N 66°32' E 012°08'1414.2
2015-Jun-26 18:34N 66°25' E 012°37'1413.7
2015-Jun-26 17:34N 66°34' E 012°12'1312.9
2015-Jun-26 16:34N 66°24' E 012°33'1111.2
2015-Jun-26 15:32N 66°20' E 012°60'4 1.8
2015-Jun-26 13:14N 66°17' E 012°56'1015.1
2015-Jun-26 12:33N 66°25' E 012°42'1515.1
2015-Jun-26 11:33N 66°30' E 012°06'1514.8
2015-Jun-26 10:33N 66°22' E 012°38'1512.1
2015-Jun-26 09:17N 66°07' E 012°48'14 4.8
2015-Jun-26 06:25N 66°20' E 012°59'8 8.9
2015-Jun-26 05:33N 66°23' E 012°41'1515.3
2015-Jun-26 04:33N 66°30' E 012°07'6 2.7
2015-Jun-26 02:31N 66°35' E 012°13'0 0.0
2015-Jun-25 23:19N 66°35' E 012°13'0 0.0
2015-Jun-25 22:07N 66°35' E 012°13'4 1.5
2015-Jun-25 19:33N 66°32' E 012°07'1414.2
2015-Jun-25 18:33N 66°25' E 012°37'1410.2
2015-Jun-25 17:13N 66°31' E 012°07'1116.3
2015-Jun-25 16:33N 66°22' E 012°22'1514.6
2015-Jun-25 15:31N 66°20' E 013°00'  

Dump ship's entire track history